createdAt,value
2018-01-20T00:00:45.593Z,6.26
2018-01-20T00:01:45.336Z,6.24
2018-01-20T00:02:45.615Z,6.27
2018-01-20T00:03:45.368Z,6.19
2018-01-20T00:04:45.356Z,6.26
2018-01-20T00:05:45.381Z,6.24
2018-01-20T00:06:45.638Z,6.26
2018-01-20T00:07:45.651Z,6.2
2018-01-20T00:08:45.679Z,6.24
2018-01-20T00:09:45.378Z,6.24
2018-01-20T00:10:45.168Z,6.2
2018-01-20T00:11:45.162Z,6.26
2018-01-20T00:12:45.445Z,6.22
2018-01-20T00:13:45.739Z,6.2
2018-01-20T00:14:45.754Z,6.24
2018-01-20T00:15:45.458Z,6.2
2018-01-20T00:16:45.459Z,6.22
2018-01-20T00:17:45.536Z,6.22
2018-01-20T00:18:45.500Z,6.26
2018-01-20T00:19:45.532Z,6.2
2018-01-20T00:20:45.502Z,6.26
2018-01-20T00:21:45.282Z,6.26
2018-01-20T00:22:45.584Z,6.24
2018-01-20T00:23:45.596Z,6.22
2018-01-20T00:24:45.316Z,6.26
2018-01-20T00:25:45.275Z,6.28
2018-01-20T00:26:45.316Z,6.26
2018-01-20T00:27:45.609Z,6.19
2018-01-20T00:28:45.911Z,6.17
2018-01-20T00:29:45.350Z,6.24
2018-01-20T00:30:45.646Z,6.24
2018-01-20T00:31:45.632Z,6.17
2018-01-20T00:32:45.685Z,6.22
2018-01-20T00:33:45.672Z,6.28
2018-01-20T00:34:45.406Z,6.2
2018-01-20T00:35:46.023Z,6.2
2018-01-20T00:36:45.675Z,6.26
2018-01-20T00:37:45.756Z,6.24
2018-01-20T00:38:45.700Z,6.16
2018-01-20T00:39:46.035Z,6.26
2018-01-20T00:40:45.760Z,6.2
2018-01-20T00:41:46.087Z,6.26
2018-01-20T00:42:46.066Z,6.26
2018-01-20T00:43:45.752Z,6.24
2018-01-20T00:44:46.042Z,6.16
2018-01-20T00:45:46.120Z,6.22
2018-01-20T00:46:45.828Z,6.17
2018-01-20T00:47:45.568Z,6.19
2018-01-20T00:48:45.829Z,6.26
2018-01-20T00:49:45.859Z,6.24
2018-01-20T00:50:45.826Z,6.27
2018-01-20T00:51:46.131Z,6.16
2018-01-20T00:52:46.167Z,6.27
2018-01-20T00:53:46.226Z,6.19
2018-01-20T00:54:45.916Z,6.27
2018-01-20T00:55:45.895Z,6.24
2018-01-20T00:56:45.635Z,6.24
2018-01-20T00:57:45.917Z,6.27
2018-01-20T00:58:45.918Z,6.11
2018-01-20T00:59:46.221Z,6.22
2018-01-20T01:00:46.001Z,6.17
2018-01-20T01:01:46.228Z,6.12
2018-01-20T01:02:46.003Z,6.12
2018-01-20T01:03:46.288Z,6.17
2018-01-20T01:04:46.047Z,6.16
2018-01-20T01:05:45.756Z,6.2
2018-01-20T01:06:45.756Z,6.09
2018-01-20T01:07:46.336Z,6.16
2018-01-20T01:08:46.349Z,6.17
2018-01-20T01:09:46.090Z,6.14
2018-01-20T01:10:45.777Z,6.12
2018-01-20T01:11:46.368Z,6.16
2018-01-20T01:12:46.082Z,6.19
2018-01-20T01:13:45.842Z,6.19
2018-01-20T01:14:46.094Z,6.19
2018-01-20T01:15:46.120Z,6.2
2018-01-20T01:16:46.113Z,6.16
2018-01-20T01:17:46.187Z,6.16
2018-01-20T01:18:46.462Z,6.14
2018-01-20T01:19:46.435Z,6.19
2018-01-20T01:20:46.215Z,6.17
2018-01-20T01:21:45.918Z,6.09
2018-01-20T01:22:46.180Z,6.19
2018-01-20T01:23:45.944Z,6.19
2018-01-20T01:24:46.543Z,6.17
2018-01-20T01:25:45.986Z,6.16
2018-01-20T01:26:46.256Z,6.11
2018-01-20T01:27:46.560Z,6.16
2018-01-20T01:28:46.541Z,6.16
2018-01-20T01:29:46.291Z,6.09
2018-01-20T01:30:46.265Z,6.16
2018-01-20T01:31:46.006Z,6.16
2018-01-20T01:32:46.866Z,6.16
2018-01-20T01:33:46.580Z,6.08
2018-01-20T01:34:46.334Z,6.22
2018-01-20T01:35:46.352Z,6.11
2018-01-20T01:36:46.379Z,6.19
2018-01-20T01:37:46.342Z,6.22
2018-01-20T01:38:46.115Z,6.07
2018-01-20T01:39:46.408Z,6.12
2018-01-20T01:40:46.127Z,6.11
2018-01-20T01:41:46.389Z,6.09
2018-01-20T01:42:46.417Z,6.14
2018-01-20T01:43:46.797Z,6.14
2018-01-20T01:44:46.164Z,6.09
2018-01-20T01:45:46.738Z,6.09
2018-01-20T01:46:46.791Z,6.2
2018-01-20T01:47:46.172Z,6.08
2018-01-20T01:48:46.497Z,6.05
2018-01-20T01:49:46.763Z,6.02
2018-01-20T01:50:46.591Z,6.01
2018-01-20T01:51:46.779Z,6.05
2018-01-20T01:52:46.820Z,6.07
2018-01-20T01:53:46.274Z,6.02
2018-01-20T01:54:46.853Z,6.05
2018-01-20T01:55:46.922Z,6.07
2018-01-20T01:56:46.870Z,6.04
2018-01-20T01:57:46.568Z,6.08
2018-01-20T01:58:46.571Z,5.98
2018-01-20T01:59:47.145Z,5.97
2018-01-20T02:00:46.635Z,6.02
2018-01-20T02:01:46.643Z,6.04
2018-01-20T02:02:46.639Z,6.01
2018-01-20T02:03:46.767Z,6.07
2018-01-20T02:04:46.648Z,6.11
2018-01-20T02:05:46.695Z,5.94
2018-01-20T02:06:46.423Z,6.05
2018-01-20T02:07:46.992Z,6.05
2018-01-20T02:08:46.429Z,5.98
2018-01-20T02:09:47.682Z,5.98
2018-01-20T02:10:46.732Z,6.02
2018-01-20T02:11:47.026Z,5.91
2018-01-20T02:12:46.463Z,6.02
2018-01-20T02:13:46.735Z,5.99
2018-01-20T02:14:46.774Z,6.02
2018-01-20T02:15:47.074Z,6.08
2018-01-20T02:16:46.806Z,5.94
2018-01-20T02:17:46.806Z,5.98
2018-01-20T02:18:46.790Z,5.98
2018-01-20T02:19:47.169Z,6.02
2018-01-20T02:20:46.862Z,5.98
2018-01-20T02:21:46.831Z,6.01
2018-01-20T02:22:46.905Z,5.98
2018-01-20T02:23:47.157Z,5.99
2018-01-20T02:24:47.174Z,6.04
2018-01-20T02:25:46.897Z,5.99
2018-01-20T02:26:46.885Z,5.93
2018-01-20T02:27:46.890Z,5.94
2018-01-20T02:28:47.237Z,5.93
2018-01-20T02:29:46.906Z,5.91
2018-01-20T02:30:47.264Z,5.91
2018-01-20T02:31:46.958Z,5.93
2018-01-20T02:32:46.984Z,5.94
2018-01-20T02:33:46.966Z,5.84
2018-01-20T02:34:47.008Z,5.87
2018-01-20T02:35:46.744Z,5.94
2018-01-20T02:36:47.307Z,5.97
2018-01-20T02:37:47.061Z,5.89
2018-01-20T02:38:47.067Z,5.87
2018-01-20T02:39:47.069Z,5.86
2018-01-20T02:40:47.098Z,5.89
2018-01-20T02:41:47.357Z,5.87
2018-01-20T02:42:47.366Z,5.9
2018-01-20T02:43:47.093Z,5.91
2018-01-20T02:44:47.385Z,5.94
2018-01-20T02:45:47.091Z,5.94
2018-01-20T02:46:47.380Z,5.91
2018-01-20T02:47:47.154Z,5.94
2018-01-20T02:48:47.153Z,6.01
2018-01-20T02:49:47.415Z,5.93
2018-01-20T02:50:47.170Z,5.91
2018-01-20T02:51:47.476Z,6.01
2018-01-20T02:52:47.509Z,5.99
2018-01-20T02:53:47.489Z,5.99
2018-01-20T02:54:46.916Z,5.98
2018-01-20T02:55:47.541Z,5.99
2018-01-20T02:56:47.219Z,6.04
2018-01-20T02:57:47.533Z,5.98
2018-01-20T02:58:47.248Z,5.94
2018-01-20T02:59:47.525Z,6.11
2018-01-20T03:00:47.534Z,5.99
2018-01-20T03:01:47.281Z,6.05
2018-01-20T03:02:47.266Z,6.01
2018-01-20T03:03:47.283Z,6.08
2018-01-20T03:04:47.346Z,5.94
2018-01-20T03:05:47.348Z,6.07
2018-01-20T03:06:47.307Z,6.01
2018-01-20T03:07:47.600Z,5.94
2018-01-20T03:08:47.637Z,6.02
2018-01-20T03:09:47.090Z,6.08
2018-01-20T03:10:47.661Z,5.97
2018-01-20T03:11:47.121Z,5.97
2018-01-20T03:12:47.100Z,6.02
2018-01-20T03:13:47.724Z,6.02
2018-01-20T03:14:47.425Z,5.98
2018-01-20T03:15:47.456Z,6.01
2018-01-20T03:16:47.475Z,6.09
2018-01-20T03:17:47.181Z,6.01
2018-01-20T03:18:47.197Z,6.05
2018-01-20T03:19:47.736Z,6.04
2018-01-20T03:20:47.522Z,6.11
2018-01-20T03:21:47.499Z,6.09
2018-01-20T03:22:47.531Z,6.04
2018-01-20T03:23:47.818Z,6.07
2018-01-20T03:24:47.536Z,6.02
2018-01-20T03:25:47.564Z,6.01
2018-01-20T03:26:47.274Z,6.09
2018-01-20T03:27:47.553Z,6.04
2018-01-20T03:28:47.574Z,6.19
2018-01-20T03:29:47.629Z,6.17
2018-01-20T03:30:47.615Z,6.04
2018-01-20T03:31:47.858Z,6.11
2018-01-20T03:32:47.898Z,6.19
2018-01-20T03:33:47.908Z,6.17
2018-01-20T03:34:47.611Z,6.14
2018-01-20T03:35:47.632Z,6.09
2018-01-20T03:36:47.944Z,6.17
2018-01-20T03:37:47.964Z,6.14
2018-01-20T03:38:47.975Z,6.11
2018-01-20T03:39:47.694Z,6.11
2018-01-20T03:40:47.673Z,6.14
2018-01-20T03:41:48.025Z,6.12
2018-01-20T03:42:47.493Z,6.12
2018-01-20T03:43:47.739Z,6.16
2018-01-20T03:44:47.895Z,6.14
2018-01-20T03:45:47.759Z,6.16
2018-01-20T03:46:47.773Z,6.05
2018-01-20T03:47:48.103Z,6.12
2018-01-20T03:48:47.791Z,6.07
2018-01-20T03:49:47.489Z,6.11
2018-01-20T03:50:47.840Z,6.09
2018-01-20T03:51:48.252Z,6.12
2018-01-20T03:52:47.845Z,6.12
2018-01-20T03:53:47.874Z,6.12
2018-01-20T03:54:47.855Z,6.14
2018-01-20T03:55:48.146Z,6.19
2018-01-20T03:56:47.855Z,6.12
2018-01-20T03:57:47.855Z,6.17
2018-01-20T03:58:47.629Z,6.12
2018-01-20T03:59:48.221Z,6.16
2018-01-20T04:00:47.999Z,6.07
2018-01-20T04:01:48.313Z,6.17
2018-01-20T04:02:48.238Z,6.14
2018-01-20T04:03:48.008Z,6.17
2018-01-20T04:04:47.975Z,6.17
2018-01-20T04:05:48.507Z,6.16
2018-01-20T04:06:47.674Z,6.14
2018-01-20T04:07:48.308Z,6.17
2018-01-20T04:08:47.745Z,6.08
2018-01-20T04:09:48.334Z,6.07
2018-01-20T04:10:48.062Z,6.05
2018-01-20T04:11:48.064Z,6.07
2018-01-20T04:12:48.334Z,6.08
2018-01-20T04:13:47.824Z,5.99
2018-01-20T04:14:48.366Z,6.11
2018-01-20T04:15:47.784Z,6.02
2018-01-20T04:16:48.085Z,6.05
2018-01-20T04:17:48.098Z,6.01
2018-01-20T04:18:48.287Z,5.98
2018-01-20T04:19:48.410Z,5.94
2018-01-20T04:20:48.139Z,5.99
2018-01-20T04:21:47.883Z,6.02
2018-01-20T04:22:48.450Z,6.02
2018-01-20T04:23:47.899Z,5.93
2018-01-20T04:24:48.172Z,5.97
2018-01-20T04:25:47.891Z,5.94
2018-01-20T04:26:48.198Z,5.97
2018-01-20T04:27:48.504Z,5.89
2018-01-20T04:28:48.487Z,5.91
2018-01-20T04:29:48.562Z,5.87
2018-01-20T04:30:48.217Z,5.97
2018-01-20T04:31:48.269Z,5.84
2018-01-20T04:32:48.248Z,5.94
2018-01-20T04:33:48.248Z,5.9
2018-01-20T04:34:48.549Z,5.83
2018-01-20T04:35:48.279Z,5.87
2018-01-20T04:36:48.588Z,5.87
2018-01-20T04:37:48.575Z,5.91
2018-01-20T04:38:48.041Z,5.86
2018-01-20T04:39:48.347Z,5.94
2018-01-20T04:40:48.355Z,5.91
2018-01-20T04:41:48.385Z,5.84
2018-01-20T04:42:48.407Z,5.97
2018-01-20T04:43:48.385Z,5.87
2018-01-20T04:44:48.698Z,5.9
2018-01-20T04:45:48.438Z,5.93
2018-01-20T04:46:48.731Z,5.93
2018-01-20T04:47:48.446Z,5.89
2018-01-20T04:48:48.417Z,5.9
2018-01-20T04:49:48.171Z,5.89
2018-01-20T04:50:48.437Z,5.94
2018-01-20T04:51:48.440Z,5.9
2018-01-20T04:52:48.463Z,5.91
2018-01-20T04:53:48.774Z,5.93
2018-01-20T04:54:48.785Z,5.97
2018-01-20T04:55:48.769Z,5.86
2018-01-20T04:56:48.578Z,5.98
2018-01-20T04:57:48.859Z,5.89
2018-01-20T04:58:48.538Z,5.84
2018-01-20T04:59:48.849Z,5.91
2018-01-20T05:00:49.052Z,5.93
2018-01-20T05:01:48.625Z,5.83
2018-01-20T05:02:48.623Z,5.89
2018-01-20T05:03:48.580Z,5.87
2018-01-20T05:04:48.628Z,5.9
2018-01-20T05:05:48.905Z,5.89
2018-01-20T05:06:48.405Z,5.93
2018-01-20T05:07:48.964Z,5.89
2018-01-20T05:08:48.655Z,5.91
2018-01-20T05:09:48.664Z,5.9
2018-01-20T05:10:48.986Z,5.89
2018-01-20T05:11:48.708Z,5.94
2018-01-20T05:12:48.981Z,5.91
2018-01-20T05:13:49.030Z,5.99
2018-01-20T05:14:48.697Z,5.9
2018-01-20T05:15:48.717Z,5.94
2018-01-20T05:16:48.452Z,5.91
2018-01-20T05:17:49.024Z,5.91
2018-01-20T05:18:48.780Z,5.91
2018-01-20T05:19:48.815Z,5.89
2018-01-20T05:20:49.061Z,5.86
2018-01-20T05:21:49.156Z,5.93
2018-01-20T05:22:48.490Z,5.97
2018-01-20T05:23:49.192Z,5.89
2018-01-20T05:24:49.126Z,5.93
2018-01-20T05:25:48.846Z,5.94
2018-01-20T05:26:49.163Z,5.87
2018-01-20T05:27:49.212Z,5.89
2018-01-20T05:28:48.874Z,5.87
2018-01-20T05:29:48.873Z,5.87
2018-01-20T05:30:49.065Z,5.89
2018-01-20T05:31:48.934Z,5.9
2018-01-20T05:32:48.877Z,5.86
2018-01-20T05:33:49.184Z,5.84
2018-01-20T05:34:48.931Z,5.86
2018-01-20T05:35:48.967Z,5.86
2018-01-20T05:36:48.932Z,5.9
2018-01-20T05:37:48.991Z,5.87
2018-01-20T05:38:49.230Z,5.87
2018-01-20T05:39:49.016Z,5.83
2018-01-20T05:40:49.003Z,5.84
2018-01-20T05:41:49.036Z,5.87
2018-01-20T05:42:48.726Z,5.86
2018-01-20T05:43:49.025Z,5.87
2018-01-20T05:44:49.327Z,5.82
2018-01-20T05:45:49.359Z,5.9
2018-01-20T05:46:49.078Z,5.84
2018-01-20T05:47:49.392Z,5.87
2018-01-20T05:48:48.817Z,5.79
2018-01-20T05:49:49.358Z,5.83
2018-01-20T05:50:49.093Z,5.84
2018-01-20T05:51:49.146Z,5.82
2018-01-20T05:52:49.132Z,5.84
2018-01-20T05:53:49.445Z,5.87
2018-01-20T05:54:49.129Z,5.84
2018-01-20T05:55:49.126Z,5.86
2018-01-20T05:56:48.895Z,5.9
2018-01-20T05:57:49.194Z,5.82
2018-01-20T05:58:49.466Z,5.86
2018-01-20T05:59:49.210Z,5.84
2018-01-20T06:00:48.920Z,5.87
2018-01-20T06:01:49.199Z,5.8
2018-01-20T06:02:49.244Z,5.91
2018-01-20T06:03:49.243Z,5.82
2018-01-20T06:04:49.276Z,5.83
2018-01-20T06:05:48.974Z,5.86
2018-01-20T06:06:49.248Z,5.87
2018-01-20T06:07:49.304Z,5.86
2018-01-20T06:08:49.539Z,5.84
2018-01-20T06:09:49.027Z,5.86
2018-01-20T06:10:49.285Z,5.84
2018-01-20T06:11:49.345Z,5.86
2018-01-20T06:12:49.620Z,5.84
2018-01-20T06:13:49.381Z,5.82
2018-01-20T06:14:49.438Z,5.83
2018-01-20T06:15:49.107Z,5.82
2018-01-20T06:16:49.378Z,5.91
2018-01-20T06:17:49.110Z,5.87
2018-01-20T06:18:49.421Z,5.87
2018-01-20T06:19:49.723Z,5.86
2018-01-20T06:20:49.432Z,5.89
2018-01-20T06:21:49.757Z,5.84
2018-01-20T06:22:49.424Z,5.86
2018-01-20T06:23:49.762Z,5.87
2018-01-20T06:24:49.754Z,5.89
2018-01-20T06:25:49.506Z,5.89
2018-01-20T06:26:49.496Z,5.91
2018-01-20T06:27:49.233Z,5.91
2018-01-20T06:28:49.517Z,5.84
2018-01-20T06:29:49.814Z,5.86
2018-01-20T06:30:49.528Z,5.93
2018-01-20T06:31:49.285Z,5.87
2018-01-20T06:32:49.841Z,5.86
2018-01-20T06:33:49.271Z,5.89
2018-01-20T06:34:49.568Z,5.91
2018-01-20T06:35:49.568Z,5.93
2018-01-20T06:36:49.290Z,5.87
2018-01-20T06:37:49.311Z,5.9
2018-01-20T06:38:49.313Z,5.91
2018-01-20T06:39:49.597Z,5.9
2018-01-20T06:40:49.963Z,5.89
2018-01-20T06:41:49.624Z,5.87
2018-01-20T06:42:50.098Z,5.9
2018-01-20T06:43:49.666Z,5.87
2018-01-20T06:44:49.687Z,5.89
2018-01-20T06:45:49.685Z,5.91
2018-01-20T06:46:49.669Z,5.93
2018-01-20T06:47:50.005Z,5.89
2018-01-20T06:48:50.006Z,5.86
2018-01-20T06:49:50.050Z,5.87
2018-01-20T06:50:49.744Z,5.89
2018-01-20T06:51:49.769Z,5.9
2018-01-20T06:52:49.811Z,5.86
2018-01-20T06:53:49.778Z,5.94
2018-01-20T06:54:50.016Z,5.84
2018-01-20T06:55:50.074Z,5.9
2018-01-20T06:56:49.895Z,6.01
2018-01-20T06:57:50.130Z,5.79
2018-01-20T06:58:49.803Z,5.87
2018-01-20T06:59:50.114Z,5.94
2018-01-20T07:00:50.138Z,5.91
2018-01-20T07:01:49.829Z,5.87
2018-01-20T07:02:49.938Z,5.98
2018-01-20T07:03:49.962Z,5.89
2018-01-20T07:04:49.911Z,5.94
2018-01-20T07:05:49.900Z,5.99
2018-01-20T07:06:49.940Z,5.89
2018-01-20T07:07:50.249Z,5.9
2018-01-20T07:08:49.642Z,5.9
2018-01-20T07:09:49.974Z,5.98
2018-01-20T07:10:49.921Z,5.87
2018-01-20T07:11:49.946Z,5.99
2018-01-20T07:12:50.322Z,5.9
2018-01-20T07:13:49.985Z,5.83
2018-01-20T07:14:50.041Z,5.97
2018-01-20T07:15:49.704Z,5.94
2018-01-20T07:16:49.727Z,5.91
2018-01-20T07:17:49.735Z,5.93
2018-01-20T07:18:50.005Z,5.91
2018-01-20T07:19:50.082Z,5.93
2018-01-20T07:20:49.748Z,5.94
2018-01-20T07:21:49.795Z,5.93
2018-01-20T07:22:50.083Z,5.91
2018-01-20T07:23:50.090Z,5.94
2018-01-20T07:24:50.124Z,5.97
2018-01-20T07:25:50.434Z,6.04
2018-01-20T07:26:50.134Z,6.02
2018-01-20T07:27:49.886Z,5.98
2018-01-20T07:28:50.145Z,5.98
2018-01-20T07:29:50.559Z,5.87
2018-01-20T07:30:50.492Z,5.9
2018-01-20T07:31:50.457Z,6.01
2018-01-20T07:32:50.499Z,5.99
2018-01-20T07:33:50.198Z,6.02
2018-01-20T07:34:49.950Z,6.01
2018-01-20T07:35:50.214Z,5.98
2018-01-20T07:36:50.237Z,6.09
2018-01-20T07:37:49.950Z,6.09
2018-01-20T07:38:50.263Z,6.05
2018-01-20T07:39:50.242Z,6.04
2018-01-20T07:40:50.022Z,6.04
2018-01-20T07:41:50.254Z,5.99
2018-01-20T07:42:50.305Z,6.16
2018-01-20T07:43:50.591Z,6.11
2018-01-20T07:44:50.318Z,6.05
2018-01-20T07:45:50.339Z,6.05
2018-01-20T07:46:50.635Z,6.04
2018-01-20T07:47:50.643Z,6.07
2018-01-20T07:48:50.360Z,6.02
2018-01-20T07:49:50.672Z,6.02
2018-01-20T07:50:50.100Z,6.17
2018-01-20T07:51:50.418Z,6.11
2018-01-20T07:52:50.693Z,6.08
2018-01-20T07:53:50.124Z,6.14
2018-01-20T07:54:50.736Z,6.16
2018-01-20T07:55:50.748Z,6.09
2018-01-20T07:56:50.156Z,6.09
2018-01-20T07:57:50.459Z,6.09
2018-01-20T07:58:50.452Z,6.12
2018-01-20T07:59:50.456Z,6.11
2018-01-20T08:00:50.227Z,6.14
2018-01-20T08:01:50.506Z,6.16
2018-01-20T08:02:50.483Z,6.12
2018-01-20T08:03:50.501Z,6.19
2018-01-20T08:04:50.809Z,6.14
2018-01-20T08:05:50.288Z,6.14
2018-01-20T08:06:50.565Z,6.12
2018-01-20T08:07:50.828Z,6.17
2018-01-20T08:08:50.607Z,6.11
2018-01-20T08:09:50.576Z,6.2
2018-01-20T08:10:50.340Z,6.09
2018-01-20T08:11:50.328Z,6.17
2018-01-20T08:12:50.936Z,6.12
2018-01-20T08:13:50.639Z,6.14
2018-01-20T08:14:50.619Z,6.12
2018-01-20T08:15:50.915Z,6.16
2018-01-20T08:16:50.688Z,6.12
2018-01-20T08:17:50.677Z,6.2
2018-01-20T08:18:50.691Z,6.14
2018-01-20T08:19:50.722Z,6.2
2018-01-20T08:20:50.700Z,6.31
2018-01-20T08:21:50.717Z,6.22
2018-01-20T08:22:50.699Z,6.27
2018-01-20T08:23:50.726Z,6.3
2018-01-20T08:24:51.026Z,6.24
2018-01-20T08:25:51.050Z,6.22
2018-01-20T08:26:50.503Z,6.24
2018-01-20T08:27:50.762Z,6.24
2018-01-20T08:28:50.503Z,6.28
2018-01-20T08:29:50.801Z,6.24
2018-01-20T08:30:50.553Z,6.27
2018-01-20T08:31:51.155Z,6.26
2018-01-20T08:32:51.146Z,6.28
2018-01-20T08:33:50.849Z,6.27
2018-01-20T08:34:50.889Z,6.27
2018-01-20T08:35:51.127Z,6.2
2018-01-20T08:36:50.588Z,6.26
2018-01-20T08:37:50.613Z,6.24
2018-01-20T08:38:50.610Z,6.26
2018-01-20T08:39:51.216Z,6.26
2018-01-20T08:40:51.208Z,6.27
2018-01-20T08:41:50.933Z,6.27
2018-01-20T08:42:50.978Z,6.27
2018-01-20T08:43:50.698Z,6.28
2018-01-20T08:44:50.985Z,6.24
2018-01-20T08:45:51.257Z,6.28
2018-01-20T08:46:50.979Z,6.31
2018-01-20T08:47:51.001Z,6.3
2018-01-20T08:48:50.990Z,6.33
2018-01-20T08:49:51.022Z,6.35
2018-01-20T08:50:51.054Z,6.35
2018-01-20T08:51:50.750Z,6.31
2018-01-20T08:52:51.066Z,6.27
2018-01-20T08:53:51.065Z,6.33
2018-01-20T08:54:51.387Z,6.27
2018-01-20T08:55:51.089Z,6.28
2018-01-20T08:56:51.133Z,6.31
2018-01-20T08:57:50.806Z,6.38
2018-01-20T08:58:51.110Z,6.33
2018-01-20T08:59:51.420Z,6.33
2018-01-20T09:00:50.875Z,6.33
2018-01-20T09:01:51.479Z,6.38
2018-01-20T09:02:51.189Z,6.31
2018-01-20T09:03:51.188Z,6.44
2018-01-20T09:04:51.192Z,6.51
2018-01-20T09:05:51.478Z,6.46
2018-01-20T09:06:51.218Z,6.51
2018-01-20T09:07:51.249Z,6.56
2018-01-20T09:08:51.218Z,6.57
2018-01-20T09:09:51.489Z,6.51
2018-01-20T09:10:51.579Z,6.57
2018-01-20T09:11:51.294Z,6.56
2018-01-20T09:12:51.595Z,6.51
2018-01-20T09:13:51.573Z,6.57
2018-01-20T09:14:51.541Z,6.62
2018-01-20T09:15:51.016Z,6.66
2018-01-20T09:16:51.339Z,6.69
2018-01-20T09:17:51.326Z,6.62
2018-01-20T09:18:51.403Z,6.63
2018-01-20T09:19:51.601Z,6.63
2018-01-20T09:20:51.678Z,6.64
2018-01-20T09:21:51.371Z,6.64
2018-01-20T09:22:51.388Z,6.66
2018-01-20T09:23:51.445Z,6.72
2018-01-20T09:24:51.373Z,6.77
2018-01-20T09:25:51.408Z,6.77
2018-01-20T09:26:51.126Z,6.72
2018-01-20T09:27:51.407Z,6.81
2018-01-20T09:28:51.699Z,6.79
2018-01-20T09:29:51.485Z,6.85
2018-01-20T09:30:51.214Z,6.92
2018-01-20T09:31:51.780Z,6.88
2018-01-20T09:32:51.236Z,6.92
2018-01-20T09:33:51.539Z,6.92
2018-01-20T09:34:51.841Z,6.92
2018-01-20T09:35:51.509Z,6.95
2018-01-20T09:36:51.541Z,6.92
2018-01-20T09:37:51.551Z,6.89
2018-01-20T09:38:51.249Z,6.89
2018-01-20T09:39:51.591Z,6.96
2018-01-20T09:40:51.832Z,6.93
2018-01-20T09:41:51.918Z,6.92
2018-01-20T09:42:51.349Z,6.93
2018-01-20T09:43:51.631Z,6.93
2018-01-20T09:44:51.922Z,6.95
2018-01-20T09:45:51.922Z,6.92
2018-01-20T09:46:51.393Z,7
2018-01-20T09:47:51.644Z,7.11
2018-01-20T09:48:51.676Z,7.07
2018-01-20T09:49:51.978Z,7
2018-01-20T09:50:52.066Z,7.11
2018-01-20T09:51:51.403Z,7.05
2018-01-20T09:52:51.707Z,7.06
2018-01-20T09:53:52.030Z,7.06
2018-01-20T09:54:51.722Z,7.03
2018-01-20T09:55:51.754Z,7.07
2018-01-20T09:56:51.798Z,7.06
2018-01-20T09:57:51.800Z,7.05
2018-01-20T09:58:51.787Z,7.03
2018-01-20T09:59:52.061Z,6.97
2018-01-20T10:00:51.500Z,7.06
2018-01-20T10:01:51.807Z,7.05
2018-01-20T10:02:51.832Z,7
2018-01-20T10:03:51.827Z,7
2018-01-20T10:04:51.552Z,7.02
2018-01-20T10:05:51.597Z,7.03
2018-01-20T10:06:51.854Z,7.06
2018-01-20T10:07:51.890Z,7.06
2018-01-20T10:08:52.161Z,7.02
2018-01-20T10:09:52.166Z,7.02
2018-01-20T10:10:51.931Z,7.02
2018-01-20T10:11:51.958Z,7.06
2018-01-20T10:12:51.983Z,7.1
2018-01-20T10:13:51.947Z,7.05
2018-01-20T10:14:51.956Z,7.07
2018-01-20T10:15:51.702Z,7.07
2018-01-20T10:16:51.727Z,7.06
2018-01-20T10:17:52.036Z,7.11
2018-01-20T10:18:52.343Z,7.1
2018-01-20T10:19:52.311Z,7.17
2018-01-20T10:20:51.784Z,7.15
2018-01-20T10:21:51.781Z,7.1
2018-01-20T10:22:51.797Z,7.21
2018-01-20T10:23:51.771Z,7.24
2018-01-20T10:24:52.335Z,7.21
2018-01-20T10:25:51.785Z,7.18
2018-01-20T10:26:52.394Z,7.15
2018-01-20T10:27:52.403Z,7.21
2018-01-20T10:28:51.820Z,7.17
2018-01-20T10:29:52.154Z,7.21
2018-01-20T10:30:52.181Z,7.14
2018-01-20T10:31:52.464Z,7.17
2018-01-20T10:32:52.159Z,7.15
2018-01-20T10:33:52.570Z,7.2
2018-01-20T10:34:52.250Z,7.15
2018-01-20T10:35:52.485Z,7.23
2018-01-20T10:36:52.218Z,7.17
2018-01-20T10:37:52.528Z,7.21
2018-01-20T10:38:52.281Z,7.31
2018-01-20T10:39:52.553Z,7.35
2018-01-20T10:40:52.529Z,7.24
2018-01-20T10:41:52.003Z,7.31
2018-01-20T10:42:52.298Z,7.38
2018-01-20T10:43:52.632Z,7.36
2018-01-20T10:44:52.607Z,7.38
2018-01-20T10:45:52.327Z,7.39
2018-01-20T10:46:52.073Z,7.48
2018-01-20T10:47:52.124Z,7.47
2018-01-20T10:48:52.347Z,7.51
2018-01-20T10:49:52.515Z,7.5
2018-01-20T10:50:52.406Z,7.42
2018-01-20T10:51:52.726Z,7.47
2018-01-20T10:52:52.444Z,7.47
2018-01-20T10:53:52.454Z,7.48
2018-01-20T10:54:52.450Z,7.42
2018-01-20T10:55:52.154Z,7.45
2018-01-20T10:56:52.462Z,7.5
2018-01-20T10:57:52.468Z,7.43
2018-01-20T10:58:52.513Z,7.43
2018-01-20T10:59:52.544Z,7.43
2018-01-20T11:00:52.224Z,7.4
2018-01-20T11:01:52.529Z,7.45
2018-01-20T11:02:52.776Z,7.47
2018-01-20T11:03:52.574Z,7.38
2018-01-20T11:04:52.842Z,7.39
2018-01-20T11:05:52.566Z,7.43
2018-01-20T11:06:52.891Z,7.42
2018-01-20T11:07:52.880Z,7.47
2018-01-20T11:08:52.321Z,7.39
2018-01-20T11:09:52.866Z,7.45
2018-01-20T11:10:52.591Z,7.45
2018-01-20T11:11:52.631Z,7.51
2018-01-20T11:12:52.931Z,7.51
2018-01-20T11:13:52.685Z,7.53
2018-01-20T11:14:52.991Z,7.56
2018-01-20T11:15:52.973Z,7.58
2018-01-20T11:16:52.701Z,7.58
2018-01-20T11:17:52.996Z,7.58
2018-01-20T11:18:52.736Z,7.66
2018-01-20T11:19:52.710Z,7.67
2018-01-20T11:20:53.035Z,7.69
2018-01-20T11:21:53.039Z,7.67
2018-01-20T11:22:53.024Z,7.67
2018-01-20T11:23:52.785Z,7.67
2018-01-20T11:24:52.969Z,7.67
2018-01-20T11:25:53.145Z,7.76
2018-01-20T11:26:53.152Z,7.82
2018-01-20T11:27:52.823Z,7.79
2018-01-20T11:28:53.116Z,7.79
2018-01-20T11:29:53.190Z,7.9
2018-01-20T11:30:52.839Z,7.93
2018-01-20T11:31:52.870Z,7.85
2018-01-20T11:32:52.894Z,7.85
2018-01-20T11:33:52.594Z,7.9
2018-01-20T11:34:52.907Z,7.95
2018-01-20T11:35:52.951Z,7.9
2018-01-20T11:36:52.936Z,8.03
2018-01-20T11:37:52.909Z,8.05
2018-01-20T11:38:52.647Z,8.01
2018-01-20T11:39:53.416Z,7.93
2018-01-20T11:40:52.990Z,7.98
2018-01-20T11:41:52.989Z,7.94
2018-01-20T11:42:53.255Z,8.06
2018-01-20T11:43:52.717Z,8.03
2018-01-20T11:44:52.808Z,8
2018-01-20T11:45:53.299Z,8.05
2018-01-20T11:46:53.361Z,8.06
2018-01-20T11:47:52.775Z,8.03
2018-01-20T11:48:53.092Z,8.06
2018-01-20T11:49:53.384Z,8.05
2018-01-20T11:50:52.834Z,8.01
2018-01-20T11:51:53.080Z,8.05
2018-01-20T11:52:53.133Z,8.1
2018-01-20T11:53:53.107Z,8.1
2018-01-20T11:54:53.491Z,8.08
2018-01-20T11:55:53.135Z,8.16
2018-01-20T11:56:53.451Z,8.12
2018-01-20T11:57:53.509Z,8.15
2018-01-20T11:58:52.942Z,8.18
2018-01-20T11:59:53.523Z,8.18
2018-01-20T12:00:53.480Z,8.16
2018-01-20T12:01:52.976Z,8.2
2018-01-20T12:02:53.298Z,8.24
2018-01-20T12:03:53.270Z,8.26
2018-01-20T12:04:53.642Z,8.23
2018-01-20T12:05:53.295Z,8.24
2018-01-20T12:06:53.587Z,8.24
2018-01-20T12:07:53.623Z,8.23
2018-01-20T12:08:53.304Z,8.27
2018-01-20T12:09:53.675Z,8.19
2018-01-20T12:10:53.103Z,8.19
2018-01-20T12:11:53.418Z,8.33
2018-01-20T12:12:53.353Z,8.33
2018-01-20T12:13:53.369Z,8.31
2018-01-20T12:14:53.095Z,8.31
2018-01-20T12:15:53.428Z,8.28
2018-01-20T12:16:53.424Z,8.36
2018-01-20T12:17:53.449Z,8.27
2018-01-20T12:18:53.735Z,8.37
2018-01-20T12:19:53.210Z,8.31
2018-01-20T12:20:53.776Z,8.36
2018-01-20T12:21:53.748Z,8.3
2018-01-20T12:22:53.751Z,8.34
2018-01-20T12:23:53.882Z,8.36
2018-01-20T12:24:53.831Z,8.37
2018-01-20T12:25:53.826Z,8.42
2018-01-20T12:26:53.822Z,8.46
2018-01-20T12:27:53.543Z,8.42
2018-01-20T12:28:53.599Z,8.53
2018-01-20T12:29:53.941Z,8.51
2018-01-20T12:30:53.632Z,8.56
2018-01-20T12:31:53.772Z,8.6
2018-01-20T12:32:53.890Z,8.6
2018-01-20T12:33:53.352Z,8.63
2018-01-20T12:34:53.349Z,8.64
2018-01-20T12:35:53.631Z,8.71
2018-01-20T12:36:53.703Z,8.69
2018-01-20T12:37:53.792Z,8.66
2018-01-20T12:38:54.015Z,8.7
2018-01-20T12:39:53.401Z,8.69
2018-01-20T12:40:53.701Z,8.7
2018-01-20T12:41:53.758Z,8.71
2018-01-20T12:42:54.077Z,8.66
2018-01-20T12:43:54.026Z,8.66
2018-01-20T12:44:53.776Z,8.64
2018-01-20T12:45:53.779Z,8.64
2018-01-20T12:46:54.039Z,8.69
2018-01-20T12:47:54.068Z,8.66
2018-01-20T12:48:53.797Z,8.64
2018-01-20T12:49:53.854Z,8.6
2018-01-20T12:50:53.547Z,8.63
2018-01-20T12:51:53.833Z,8.63
2018-01-20T12:52:53.900Z,8.63
2018-01-20T12:53:53.918Z,8.66
2018-01-20T12:54:54.311Z,8.63
2018-01-20T12:55:53.933Z,8.63
2018-01-20T12:56:53.640Z,8.61
2018-01-20T12:57:53.898Z,8.66
2018-01-20T12:58:53.925Z,8.63
2018-01-20T12:59:54.289Z,8.67
2018-01-20T13:00:53.697Z,8.63
2018-01-20T13:01:54.280Z,8.56
2018-01-20T13:02:54.024Z,8.53
2018-01-20T13:03:54.036Z,8.63
2018-01-20T13:04:53.720Z,8.6
2018-01-20T13:05:54.052Z,8.66
2018-01-20T13:06:54.010Z,8.7
2018-01-20T13:07:54.303Z,8.55
2018-01-20T13:08:53.791Z,8.52
2018-01-20T13:09:54.376Z,8.51
2018-01-20T13:10:54.167Z,8.61
2018-01-20T13:11:54.143Z,8.53
2018-01-20T13:12:54.121Z,8.52
2018-01-20T13:13:54.155Z,8.52
2018-01-20T13:14:53.856Z,8.55
2018-01-20T13:15:54.471Z,8.53
2018-01-20T13:16:54.418Z,8.53
2018-01-20T13:17:54.505Z,8.55
2018-01-20T13:18:54.490Z,8.58
2018-01-20T13:19:54.500Z,8.53
2018-01-20T13:20:54.298Z,8.56